sensor_id;sensor_type;location;lat;lon;timestamp;P1;durP1;ratioP1;P2;durP2;ratioP2
20381;SDS011;10350;51.280;12.400;2024-03-22T00:01:43;31.02;;;29.05;;
20381;SDS011;10350;51.280;12.400;2024-03-22T00:04:10;31.67;;;29.45;;
20381;SDS011;10350;51.280;12.400;2024-03-22T00:06:36;35.10;;;32.60;;
20381;SDS011;10350;51.280;12.400;2024-03-22T00:09:02;38.00;;;35.47;;
20381;SDS011;10350;51.280;12.400;2024-03-22T00:11:28;41.00;;;38.40;;
20381;SDS011;10350;51.280;12.400;2024-03-22T00:13:54;41.92;;;39.20;;
20381;SDS011;10350;51.280;12.400;2024-03-22T00:16:20;43.78;;;41.00;;
20381;SDS011;10350;51.280;12.400;2024-03-22T00:18:46;45.72;;;42.97;;
20381;SDS011;10350;51.280;12.400;2024-03-22T00:21:12;51.30;;;48.03;;
20381;SDS011;10350;51.280;12.400;2024-03-22T00:23:38;49.90;;;46.85;;
20381;SDS011;10350;51.280;12.400;2024-03-22T00:26:04;48.17;;;45.20;;
20381;SDS011;10350;51.280;12.400;2024-03-22T00:28:30;47.03;;;43.95;;
20381;SDS011;10350;51.280;12.400;2024-03-22T00:30:55;43.47;;;40.67;;
20381;SDS011;10350;51.280;12.400;2024-03-22T00:33:21;44.95;;;42.10;;
20381;SDS011;10350;51.280;12.400;2024-03-22T00:35:47;42.30;;;39.42;;
20381;SDS011;10350;51.280;12.400;2024-03-22T00:38:13;40.55;;;37.70;;
20381;SDS011;10350;51.280;12.400;2024-03-22T00:40:39;35.72;;;33.10;;
20381;SDS011;10350;51.280;12.400;2024-03-22T00:43:06;36.13;;;33.83;;
20381;SDS011;10350;51.280;12.400;2024-03-22T00:45:32;32.30;;;29.80;;
20381;SDS011;10350;51.280;12.400;2024-03-22T00:47:57;28.95;;;26.80;;
20381;SDS011;10350;51.280;12.400;2024-03-22T00:50:23;29.27;;;27.17;;
20381;SDS011;10350;51.280;12.400;2024-03-22T00:52:50;26.88;;;25.00;;
20381;SDS011;10350;51.280;12.400;2024-03-22T00:55:18;29.35;;;27.10;;
20381;SDS011;10350;51.280;12.400;2024-03-22T00:57:44;27.80;;;25.75;;
20381;SDS011;10350;51.280;12.400;2024-03-22T01:00:10;29.50;;;27.23;;
20381;SDS011;10350;51.280;12.400;2024-03-22T01:02:36;28.48;;;26.23;;
20381;SDS011;10350;51.280;12.400;2024-03-22T01:05:02;26.65;;;24.63;;
20381;SDS011;10350;51.280;12.400;2024-03-22T01:07:28;29.02;;;26.95;;
20381;SDS011;10350;51.280;12.400;2024-03-22T01:09:54;28.55;;;26.40;;
20381;SDS011;10350;51.280;12.400;2024-03-22T01:12:20;28.17;;;26.17;;
20381;SDS011;10350;51.280;12.400;2024-03-22T01:14:46;29.33;;;26.92;;
20381;SDS011;10350;51.280;12.400;2024-03-22T01:17:12;28.92;;;27.02;;
20381;SDS011;10350;51.280;12.400;2024-03-22T01:19:38;28.75;;;26.80;;
20381;SDS011;10350;51.280;12.400;2024-03-22T01:22:04;31.20;;;28.75;;
20381;SDS011;10350;51.280;12.400;2024-03-22T01:24:30;31.40;;;28.95;;
20381;SDS011;10350;51.280;12.400;2024-03-22T01:26:56;28.00;;;26.02;;
20381;SDS011;10350;51.280;12.400;2024-03-22T01:29:22;29.60;;;27.10;;
20381;SDS011;10350;51.280;12.400;2024-03-22T01:31:48;28.08;;;26.08;;
20381;SDS011;10350;51.280;12.400;2024-03-22T01:34:14;31.75;;;29.25;;
20381;SDS011;10350;51.280;12.400;2024-03-22T01:36:40;29.67;;;27.33;;
20381;SDS011;10350;51.280;12.400;2024-03-22T01:39:06;30.13;;;27.83;;
20381;SDS011;10350;51.280;12.400;2024-03-22T01:41:32;29.02;;;26.77;;
20381;SDS011;10350;51.280;12.400;2024-03-22T01:43:58;27.85;;;25.83;;
20381;SDS011;10350;51.280;12.400;2024-03-22T01:46:24;30.00;;;27.67;;
20381;SDS011;10350;51.280;12.400;2024-03-22T01:48:50;29.60;;;27.50;;
20381;SDS011;10350;51.280;12.400;2024-03-22T01:51:17;29.70;;;27.25;;
20381;SDS011;10350;51.280;12.400;2024-03-22T01:53:43;30.90;;;28.25;;
20381;SDS011;10350;51.280;12.400;2024-03-22T01:56:09;29.98;;;27.30;;
20381;SDS011;10350;51.280;12.400;2024-03-22T01:58:36;31.00;;;28.25;;
20381;SDS011;10350;51.280;12.400;2024-03-22T02:01:02;28.95;;;26.38;;
20381;SDS011;10350;51.280;12.400;2024-03-22T02:03:28;30.90;;;27.90;;
20381;SDS011;10350;51.280;12.400;2024-03-22T02:05:54;33.30;;;30.48;;
20381;SDS011;10350;51.280;12.400;2024-03-22T02:08:20;34.13;;;31.35;;
20381;SDS011;10350;51.280;12.400;2024-03-22T02:10:46;32.45;;;29.38;;
20381;SDS011;10350;51.280;12.400;2024-03-22T02:13:12;30.08;;;27.67;;
20381;SDS011;10350;51.280;12.400;2024-03-22T02:15:38;33.42;;;30.55;;
20381;SDS011;10350;51.280;12.400;2024-03-22T02:18:04;31.83;;;29.45;;
20381;SDS011;10350;51.280;12.400;2024-03-22T02:20:30;30.70;;;28.08;;
20381;SDS011;10350;51.280;12.400;2024-03-22T02:22:56;31.33;;;28.60;;
20381;SDS011;10350;51.280;12.400;2024-03-22T02:25:22;29.52;;;26.95;;
20381;SDS011;10350;51.280;12.400;2024-03-22T02:27:48;33.05;;;29.85;;
20381;SDS011;10350;51.280;12.400;2024-03-22T02:30:15;31.95;;;29.15;;
20381;SDS011;10350;51.280;12.400;2024-03-22T02:32:41;33.15;;;30.23;;
20381;SDS011;10350;51.280;12.400;2024-03-22T02:35:07;34.47;;;31.48;;
20381;SDS011;10350;51.280;12.400;2024-03-22T02:37:33;32.65;;;29.20;;
20381;SDS011;10350;51.280;12.400;2024-03-22T02:39:59;32.17;;;29.50;;
20381;SDS011;10350;51.280;12.400;2024-03-22T02:42:25;33.38;;;30.45;;
20381;SDS011;10350;51.280;12.400;2024-03-22T02:44:52;36.30;;;33.22;;
20381;SDS011;10350;51.280;12.400;2024-03-22T02:47:18;41.83;;;37.97;;
20381;SDS011;10350;51.280;12.400;2024-03-22T02:49:44;41.55;;;38.38;;
20381;SDS011;10350;51.280;12.400;2024-03-22T02:52:10;45.80;;;42.00;;
20381;SDS011;10350;51.280;12.400;2024-03-22T02:54:36;49.85;;;46.03;;
20381;SDS011;10350;51.280;12.400;2024-03-22T02:57:02;51.80;;;48.03;;
20381;SDS011;10350;51.280;12.400;2024-03-22T02:59:28;53.10;;;49.03;;
20381;SDS011;10350;51.280;12.400;2024-03-22T03:01:54;53.38;;;49.78;;
20381;SDS011;10350;51.280;12.400;2024-03-22T03:04:20;53.28;;;49.28;;
20381;SDS011;10350;51.280;12.400;2024-03-22T03:06:46;54.47;;;50.28;;
20381;SDS011;10350;51.280;12.400;2024-03-22T03:09:12;52.83;;;49.00;;
20381;SDS011;10350;51.280;12.400;2024-03-22T03:11:38;47.90;;;44.17;;
20381;SDS011;10350;51.280;12.400;2024-03-22T03:14:05;49.55;;;45.75;;
20381;SDS011;10350;51.280;12.400;2024-03-22T03:16:31;45.90;;;42.20;;
20381;SDS011;10350;51.280;12.400;2024-03-22T03:18:57;43.17;;;39.33;;
20381;SDS011;10350;51.280;12.400;2024-03-22T03:21:23;43.03;;;39.35;;
20381;SDS011;10350;51.280;12.400;2024-03-22T03:23:49;41.08;;;38.22;;
20381;SDS011;10350;51.280;12.400;2024-03-22T03:26:15;37.80;;;34.85;;
20381;SDS011;10350;51.280;12.400;2024-03-22T03:28:41;34.70;;;32.05;;
20381;SDS011;10350;51.280;12.400;2024-03-22T03:31:07;35.28;;;32.30;;
20381;SDS011;10350;51.280;12.400;2024-03-22T03:33:33;32.83;;;30.23;;
20381;SDS011;10350;51.280;12.400;2024-03-22T03:35:58;34.50;;;31.70;;
20381;SDS011;10350;51.280;12.400;2024-03-22T03:38:24;37.55;;;34.70;;
20381;SDS011;10350;51.280;12.400;2024-03-22T03:40:50;34.17;;;31.50;;
20381;SDS011;10350;51.280;12.400;2024-03-22T03:43:16;32.67;;;30.08;;
20381;SDS011;10350;51.280;12.400;2024-03-22T03:45:42;33.72;;;30.65;;
20381;SDS011;10350;51.280;12.400;2024-03-22T03:48:08;33.65;;;30.90;;
20381;SDS011;10350;51.280;12.400;2024-03-22T03:50:34;34.15;;;31.52;;
20381;SDS011;10350;51.280;12.400;2024-03-22T03:53:00;35.92;;;33.40;;
20381;SDS011;10350;51.280;12.400;2024-03-22T03:55:26;34.97;;;32.55;;
20381;SDS011;10350;51.280;12.400;2024-03-22T03:57:52;34.97;;;32.20;;
20381;SDS011;10350;51.280;12.400;2024-03-22T04:00:19;33.85;;;31.63;;
20381;SDS011;10350;51.280;12.400;2024-03-22T04:02:45;34.38;;;31.63;;
20381;SDS011;10350;51.280;12.400;2024-03-22T04:05:11;33.78;;;31.40;;
20381;SDS011;10350;51.280;12.400;2024-03-22T04:07:37;34.45;;;31.90;;
20381;SDS011;10350;51.280;12.400;2024-03-22T04:10:04;34.28;;;32.08;;
20381;SDS011;10350;51.280;12.400;2024-03-22T04:12:31;33.00;;;30.80;;
20381;SDS011;10350;51.280;12.400;2024-03-22T04:14:57;34.17;;;31.83;;
20381;SDS011;10350;51.280;12.400;2024-03-22T04:17:22;33.63;;;31.38;;
20381;SDS011;10350;51.280;12.400;2024-03-22T04:19:51;34.15;;;31.30;;
20381;SDS011;10350;51.280;12.400;2024-03-22T04:22:18;31.17;;;29.27;;
20381;SDS011;10350;51.280;12.400;2024-03-22T04:24:44;36.80;;;34.03;;
20381;SDS011;10350;51.280;12.400;2024-03-22T04:27:10;33.65;;;31.42;;
20381;SDS011;10350;51.280;12.400;2024-03-22T04:29:35;35.13;;;32.72;;
20381;SDS011;10350;51.280;12.400;2024-03-22T04:32:01;36.00;;;33.80;;
20381;SDS011;10350;51.280;12.400;2024-03-22T04:34:27;33.70;;;31.55;;
20381;SDS011;10350;51.280;12.400;2024-03-22T04:36:53;32.13;;;30.13;;
20381;SDS011;10350;51.280;12.400;2024-03-22T04:39:19;31.80;;;29.75;;
20381;SDS011;10350;51.280;12.400;2024-03-22T04:41:45;36.40;;;34.20;;
20381;SDS011;10350;51.280;12.400;2024-03-22T04:44:11;32.20;;;30.20;;
20381;SDS011;10350;51.280;12.400;2024-03-22T04:46:37;33.20;;;31.10;;
20381;SDS011;10350;51.280;12.400;2024-03-22T04:49:03;35.08;;;32.78;;
20381;SDS011;10350;51.280;12.400;2024-03-22T04:51:29;35.25;;;32.92;;
20381;SDS011;10350;51.280;12.400;2024-03-22T04:53:55;32.90;;;30.55;;
20381;SDS011;10350;51.280;12.400;2024-03-22T04:56:21;34.95;;;32.78;;
20381;SDS011;10350;51.280;12.400;2024-03-22T04:58:47;35.53;;;33.10;;
20381;SDS011;10350;51.280;12.400;2024-03-22T05:01:13;34.95;;;32.55;;
20381;SDS011;10350;51.280;12.400;2024-03-22T05:03:39;34.20;;;32.08;;
20381;SDS011;10350;51.280;12.400;2024-03-22T05:06:06;33.92;;;31.27;;
20381;SDS011;10350;51.280;12.400;2024-03-22T05:08:32;33.50;;;31.33;;
20381;SDS011;10350;51.280;12.400;2024-03-22T05:11:01;35.80;;;33.47;;
20381;SDS011;10350;51.280;12.400;2024-03-22T05:13:28;34.92;;;32.58;;
20381;SDS011;10350;51.280;12.400;2024-03-22T05:15:54;37.00;;;34.50;;
20381;SDS011;10350;51.280;12.400;2024-03-22T05:18:20;35.95;;;33.72;;
20381;SDS011;10350;51.280;12.400;2024-03-22T05:20:45;33.50;;;31.50;;
20381;SDS011;10350;51.280;12.400;2024-03-22T05:23:11;32.75;;;30.63;;
20381;SDS011;10350;51.280;12.400;2024-03-22T05:25:37;34.88;;;32.67;;
20381;SDS011;10350;51.280;12.400;2024-03-22T05:28:04;34.88;;;32.78;;
20381;SDS011;10350;51.280;12.400;2024-03-22T05:30:30;34.42;;;32.25;;
20381;SDS011;10350;51.280;12.400;2024-03-22T05:32:56;36.63;;;34.30;;
20381;SDS011;10350;51.280;12.400;2024-03-22T05:35:22;35.53;;;33.05;;
20381;SDS011;10350;51.280;12.400;2024-03-22T05:37:48;32.88;;;30.92;;
20381;SDS011;10350;51.280;12.400;2024-03-22T05:40:14;34.08;;;31.98;;
20381;SDS011;10350;51.280;12.400;2024-03-22T05:42:41;37.78;;;35.33;;
20381;SDS011;10350;51.280;12.400;2024-03-22T05:45:07;35.15;;;33.05;;
20381;SDS011;10350;51.280;12.400;2024-03-22T05:47:33;34.50;;;32.17;;
20381;SDS011;10350;51.280;12.400;2024-03-22T05:49:59;35.53;;;32.97;;
20381;SDS011;10350;51.280;12.400;2024-03-22T05:52:26;34.83;;;32.50;;
20381;SDS011;10350;51.280;12.400;2024-03-22T05:54:52;35.90;;;33.72;;
20381;SDS011;10350;51.280;12.400;2024-03-22T05:57:18;32.05;;;30.05;;
20381;SDS011;10350;51.280;12.400;2024-03-22T05:59:44;35.75;;;33.50;;
20381;SDS011;10350;51.280;12.400;2024-03-22T06:02:10;34.95;;;32.50;;
20381;SDS011;10350;51.280;12.400;2024-03-22T06:04:36;34.25;;;32.22;;
20381;SDS011;10350;51.280;12.400;2024-03-22T06:07:02;34.83;;;32.67;;
20381;SDS011;10350;51.280;12.400;2024-03-22T06:09:29;36.25;;;33.90;;
20381;SDS011;10350;51.280;12.400;2024-03-22T06:12:14;36.22;;;33.67;;
20381;SDS011;10350;51.280;12.400;2024-03-22T06:14:43;34.85;;;32.28;;
20381;SDS011;10350;51.280;12.400;2024-03-22T06:17:09;33.72;;;31.65;;
20381;SDS011;10350;51.280;12.400;2024-03-22T06:19:35;35.30;;;32.72;;
20381;SDS011;10350;51.280;12.400;2024-03-22T06:22:01;34.80;;;32.22;;
20381;SDS011;10350;51.280;12.400;2024-03-22T06:24:27;34.70;;;32.65;;
20381;SDS011;10350;51.280;12.400;2024-03-22T06:26:53;36.72;;;34.15;;
20381;SDS011;10350;51.280;12.400;2024-03-22T06:29:19;41.13;;;38.58;;
20381;SDS011;10350;51.280;12.400;2024-03-22T06:31:46;39.58;;;37.25;;
20381;SDS011;10350;51.280;12.400;2024-03-22T06:34:12;38.85;;;36.58;;
20381;SDS011;10350;51.280;12.400;2024-03-22T06:36:38;40.25;;;37.83;;
20381;SDS011;10350;51.280;12.400;2024-03-22T06:39:04;43.35;;;40.53;;
20381;SDS011;10350;51.280;12.400;2024-03-22T06:41:33;47.67;;;44.45;;
20381;SDS011;10350;51.280;12.400;2024-03-22T06:43:59;42.05;;;39.55;;
20381;SDS011;10350;51.280;12.400;2024-03-22T06:46:26;38.72;;;36.13;;
20381;SDS011;10350;51.280;12.400;2024-03-22T06:48:52;40.45;;;38.05;;
20381;SDS011;10350;51.280;12.400;2024-03-22T06:51:19;39.15;;;36.55;;
20381;SDS011;10350;51.280;12.400;2024-03-22T06:53:45;37.97;;;35.75;;
20381;SDS011;10350;51.280;12.400;2024-03-22T06:56:12;39.13;;;36.80;;
20381;SDS011;10350;51.280;12.400;2024-03-22T06:58:38;39.67;;;36.95;;
20381;SDS011;10350;51.280;12.400;2024-03-22T07:01:04;40.08;;;37.47;;
20381;SDS011;10350;51.280;12.400;2024-03-22T07:03:30;37.80;;;35.40;;
20381;SDS011;10350;51.280;12.400;2024-03-22T07:05:57;39.03;;;36.63;;
20381;SDS011;10350;51.280;12.400;2024-03-22T07:08:23;37.63;;;35.08;;
20381;SDS011;10350;51.280;12.400;2024-03-22T07:10:50;39.05;;;36.53;;
20381;SDS011;10350;51.280;12.400;2024-03-22T07:13:18;38.78;;;36.38;;
20381;SDS011;10350;51.280;12.400;2024-03-22T07:15:47;39.63;;;37.03;;
20381;SDS011;10350;51.280;12.400;2024-03-22T07:18:13;36.97;;;34.60;;
20381;SDS011;10350;51.280;12.400;2024-03-22T07:20:40;38.95;;;36.30;;
20381;SDS011;10350;51.280;12.400;2024-03-22T07:23:06;37.95;;;35.63;;
20381;SDS011;10350;51.280;12.400;2024-03-22T07:25:32;37.85;;;35.38;;
20381;SDS011;10350;51.280;12.400;2024-03-22T07:27:58;37.22;;;34.63;;
20381;SDS011;10350;51.280;12.400;2024-03-22T07:30:24;38.40;;;35.88;;
20381;SDS011;10350;51.280;12.400;2024-03-22T07:32:50;39.83;;;37.33;;
20381;SDS011;10350;51.280;12.400;2024-03-22T07:35:16;38.22;;;35.40;;
20381;SDS011;10350;51.280;12.400;2024-03-22T07:37:42;39.35;;;36.35;;
20381;SDS011;10350;51.280;12.400;2024-03-22T07:40:09;41.13;;;38.40;;
20381;SDS011;10350;51.280;12.400;2024-03-22T07:42:35;41.28;;;38.10;;
20381;SDS011;10350;51.280;12.400;2024-03-22T07:45:01;40.30;;;37.75;;
20381;SDS011;10350;51.280;12.400;2024-03-22T07:47:27;42.97;;;40.15;;
20381;SDS011;10350;51.280;12.400;2024-03-22T07:49:54;44.50;;;41.63;;
20381;SDS011;10350;51.280;12.400;2024-03-22T07:52:20;47.35;;;44.30;;
20381;SDS011;10350;51.280;12.400;2024-03-22T07:54:46;49.60;;;46.22;;
20381;SDS011;10350;51.280;12.400;2024-03-22T07:57:12;47.75;;;44.72;;
20381;SDS011;10350;51.280;12.400;2024-03-22T07:59:38;51.95;;;48.53;;
20381;SDS011;10350;51.280;12.400;2024-03-22T08:02:04;55.50;;;51.60;;
20381;SDS011;10350;51.280;12.400;2024-03-22T08:04:30;51.03;;;47.75;;
20381;SDS011;10350;51.280;12.400;2024-03-22T08:06:56;50.85;;;47.20;;
20381;SDS011;10350;51.280;12.400;2024-03-22T08:09:22;51.05;;;47.80;;
20381;SDS011;10350;51.280;12.400;2024-03-22T08:11:48;48.95;;;45.95;;
20381;SDS011;10350;51.280;12.400;2024-03-22T08:14:14;47.88;;;44.78;;
20381;SDS011;10350;51.280;12.400;2024-03-22T08:16:41;44.55;;;41.53;;
20381;SDS011;10350;51.280;12.400;2024-03-22T08:19:07;45.72;;;42.63;;
20381;SDS011;10350;51.280;12.400;2024-03-22T08:21:33;46.33;;;43.15;;
20381;SDS011;10350;51.280;12.400;2024-03-22T08:23:59;45.00;;;41.97;;
20381;SDS011;10350;51.280;12.400;2024-03-22T08:26:25;43.15;;;40.45;;
20381;SDS011;10350;51.280;12.400;2024-03-22T08:28:51;46.63;;;43.55;;
20381;SDS011;10350;51.280;12.400;2024-03-22T08:31:17;47.72;;;44.38;;
20381;SDS011;10350;51.280;12.400;2024-03-22T08:33:46;50.03;;;46.65;;
20381;SDS011;10350;51.280;12.400;2024-03-22T08:36:12;51.53;;;48.22;;
20381;SDS011;10350;51.280;12.400;2024-03-22T08:38:38;54.28;;;50.78;;
20381;SDS011;10350;51.280;12.400;2024-03-22T08:41:04;53.03;;;49.60;;
20381;SDS011;10350;51.280;12.400;2024-03-22T08:43:30;53.78;;;50.42;;
20381;SDS011;10350;51.280;12.400;2024-03-22T08:45:56;59.50;;;55.60;;
20381;SDS011;10350;51.280;12.400;2024-03-22T08:48:22;66.72;;;62.45;;
20381;SDS011;10350;51.280;12.400;2024-03-22T08:50:48;64.72;;;60.83;;
20381;SDS011;10350;51.280;12.400;2024-03-22T08:53:15;554.60;;;301.23;;
20381;SDS011;10350;51.280;12.400;2024-03-22T08:55:46;1999.90;;;999.90;;
20381;SDS011;10350;51.280;12.400;2024-03-22T08:58:13;1999.90;;;999.90;;
20381;SDS011;10350;51.280;12.400;2024-03-22T09:00:39;1999.90;;;999.90;;
20381;SDS011;10350;51.280;12.400;2024-03-22T09:03:06;1999.90;;;999.90;;
20381;SDS011;10350;51.280;12.400;2024-03-22T09:05:32;1999.90;;;999.90;;
20381;SDS011;10350;51.280;12.400;2024-03-22T09:07:58;1999.90;;;999.90;;
20381;SDS011;10350;51.280;12.400;2024-03-22T09:10:24;1999.90;;;999.90;;
20381;SDS011;10350;51.280;12.400;2024-03-22T09:12:51;1999.90;;;999.90;;
20381;SDS011;10350;51.280;12.400;2024-03-22T09:15:17;1999.90;;;999.90;;
20381;SDS011;10350;51.280;12.400;2024-03-22T09:17:43;1999.90;;;999.90;;
20381;SDS011;10350;51.280;12.400;2024-03-22T09:20:09;1999.90;;;999.90;;
20381;SDS011;10350;51.280;12.400;2024-03-22T09:22:35;1999.90;;;999.90;;
20381;SDS011;10350;51.280;12.400;2024-03-22T09:25:01;1999.90;;;999.90;;
20381;SDS011;10350;51.280;12.400;2024-03-22T09:27:27;1999.90;;;999.90;;
20381;SDS011;10350;51.280;12.400;2024-03-22T09:29:53;1999.90;;;999.90;;
20381;SDS011;10350;51.280;12.400;2024-03-22T09:32:19;1999.90;;;999.90;;
20381;SDS011;10350;51.280;12.400;2024-03-22T09:34:45;1999.90;;;999.90;;
20381;SDS011;10350;51.280;12.400;2024-03-22T09:37:11;1999.90;;;999.90;;
20381;SDS011;10350;51.280;12.400;2024-03-22T09:39:37;1999.90;;;999.90;;
20381;SDS011;10350;51.280;12.400;2024-03-22T09:42:04;1999.90;;;999.90;;
20381;SDS011;10350;51.280;12.400;2024-03-22T09:46:57;1999.90;;;999.90;;
20381;SDS011;10350;51.280;12.400;2024-03-22T09:49:24;1999.90;;;999.90;;
20381;SDS011;10350;51.280;12.400;2024-03-22T09:51:51;1999.90;;;999.90;;
20381;SDS011;10350;51.280;12.400;2024-03-22T09:54:17;1999.90;;;999.90;;
20381;SDS011;10350;51.280;12.400;2024-03-22T09:56:43;1999.90;;;999.90;;
20381;SDS011;10350;51.280;12.400;2024-03-22T09:59:12;1999.90;;;999.90;;
20381;SDS011;10350;51.280;12.400;2024-03-22T10:01:39;1999.90;;;999.90;;
20381;SDS011;10350;51.280;12.400;2024-03-22T10:04:05;1999.90;;;999.90;;
20381;SDS011;10350;51.280;12.400;2024-03-22T10:06:31;1999.90;;;999.90;;
20381;SDS011;10350;51.280;12.400;2024-03-22T10:08:58;1999.90;;;999.90;;
20381;SDS011;10350;51.280;12.400;2024-03-22T10:11:29;1999.90;;;999.90;;
20381;SDS011;10350;51.280;12.400;2024-03-22T10:13:55;1999.90;;;999.90;;
20381;SDS011;10350;51.280;12.400;2024-03-22T10:16:21;1999.90;;;999.90;;
20381;SDS011;10350;51.280;12.400;2024-03-22T10:18:47;1999.90;;;999.90;;
20381;SDS011;10350;51.280;12.400;2024-03-22T10:21:16;56.83;;;53.35;;
20381;SDS011;10350;51.280;12.400;2024-03-22T10:23:43;58.78;;;55.25;;
20381;SDS011;10350;51.280;12.400;2024-03-22T10:26:09;58.58;;;54.88;;
20381;SDS011;10350;51.280;12.400;2024-03-22T10:28:35;59.20;;;55.55;;
20381;SDS011;10350;51.280;12.400;2024-03-22T10:31:01;57.50;;;53.92;;
20381;SDS011;10350;51.280;12.400;2024-03-22T10:33:27;61.58;;;57.88;;
20381;SDS011;10350;51.280;12.400;2024-03-22T10:35:54;61.85;;;58.05;;
20381;SDS011;10350;51.280;12.400;2024-03-22T10:38:21;63.28;;;59.47;;
20381;SDS011;10350;51.280;12.400;2024-03-22T10:40:47;68.15;;;64.28;;
20381;SDS011;10350;51.280;12.400;2024-03-22T10:43:14;69.65;;;65.45;;
20381;SDS011;10350;51.280;12.400;2024-03-22T10:45:40;72.30;;;67.82;;
20381;SDS011;10350;51.280;12.400;2024-03-22T10:48:10;69.88;;;65.63;;
20381;SDS011;10350;51.280;12.400;2024-03-22T10:50:41;72.07;;;67.68;;
20381;SDS011;10350;51.280;12.400;2024-03-22T10:53:16;67.57;;;63.28;;
20381;SDS011;10350;51.280;12.400;2024-03-22T10:55:43;63.70;;;59.65;;
20381;SDS011;10350;51.280;12.400;2024-03-22T10:58:22;63.63;;;59.70;;
20381;SDS011;10350;51.280;12.400;2024-03-22T11:00:52;63.58;;;59.60;;
20381;SDS011;10350;51.280;12.400;2024-03-22T11:03:23;56.97;;;53.42;;
20381;SDS011;10350;51.280;12.400;2024-03-22T11:05:55;58.30;;;54.75;;
20381;SDS011;10350;51.280;12.400;2024-03-22T11:10:51;54.25;;;50.88;;
20381;SDS011;10350;51.280;12.400;2024-03-22T11:13:17;1513.80;;;762.92;;
20381;SDS011;10350;51.280;12.400;2024-03-22T11:15:43;1999.90;;;999.90;;
20381;SDS011;10350;51.280;12.400;2024-03-22T11:18:09;1999.90;;;999.90;;
20381;SDS011;10350;51.280;12.400;2024-03-22T11:20:35;1999.90;;;999.90;;
20381;SDS011;10350;51.280;12.400;2024-03-22T11:23:03;1999.90;;;999.90;;
20381;SDS011;10350;51.280;12.400;2024-03-22T11:25:31;1999.90;;;999.90;;
20381;SDS011;10350;51.280;12.400;2024-03-22T11:27:57;1999.90;;;999.90;;
20381;SDS011;10350;51.280;12.400;2024-03-22T11:30:24;1999.90;;;999.90;;
20381;SDS011;10350;51.280;12.400;2024-03-22T11:32:50;1999.90;;;999.90;;
20381;SDS011;10350;51.280;12.400;2024-03-22T11:35:16;1999.90;;;999.90;;
20381;SDS011;10350;51.280;12.400;2024-03-22T11:37:42;1999.90;;;999.90;;
20381;SDS011;10350;51.280;12.400;2024-03-22T11:40:08;1999.90;;;999.90;;
20381;SDS011;10350;51.280;12.400;2024-03-22T11:42:35;1999.90;;;999.90;;
20381;SDS011;10350;51.280;12.400;2024-03-22T11:45:02;1999.90;;;999.90;;
20381;SDS011;10350;51.280;12.400;2024-03-22T11:47:28;1999.90;;;999.90;;
20381;SDS011;10350;51.280;12.400;2024-03-22T11:49:55;1999.90;;;999.90;;
20381;SDS011;10350;51.280;12.400;2024-03-22T11:52:27;1999.90;;;999.90;;
20381;SDS011;10350;51.280;12.400;2024-03-22T11:54:53;1999.90;;;999.90;;
20381;SDS011;10350;51.280;12.400;2024-03-22T11:57:22;1999.90;;;999.90;;
20381;SDS011;10350;51.280;12.400;2024-03-22T11:59:48;1999.90;;;999.90;;
20381;SDS011;10350;51.280;12.400;2024-03-22T12:02:15;1999.90;;;999.90;;
20381;SDS011;10350;51.280;12.400;2024-03-22T12:04:41;1999.90;;;999.90;;
20381;SDS011;10350;51.280;12.400;2024-03-22T12:07:11;1999.90;;;999.90;;
20381;SDS011;10350;51.280;12.400;2024-03-22T12:09:37;1999.90;;;999.90;;
20381;SDS011;10350;51.280;12.400;2024-03-22T12:12:04;1999.90;;;999.90;;
20381;SDS011;10350;51.280;12.400;2024-03-22T12:14:30;1999.90;;;999.90;;
20381;SDS011;10350;51.280;12.400;2024-03-22T12:16:56;1999.90;;;999.90;;
20381;SDS011;10350;51.280;12.400;2024-03-22T12:19:22;1999.90;;;999.90;;
20381;SDS011;10350;51.280;12.400;2024-03-22T12:21:48;1999.90;;;999.90;;
20381;SDS011;10350;51.280;12.400;2024-03-22T12:24:14;1999.90;;;999.90;;
20381;SDS011;10350;51.280;12.400;2024-03-22T12:26:40;1999.90;;;999.90;;
20381;SDS011;10350;51.280;12.400;2024-03-22T12:29:06;1999.90;;;999.90;;
20381;SDS011;10350;51.280;12.400;2024-03-22T12:31:32;1999.90;;;999.90;;
20381;SDS011;10350;51.280;12.400;2024-03-22T12:33:58;1999.90;;;999.90;;
20381;SDS011;10350;51.280;12.400;2024-03-22T12:36:24;1999.90;;;999.90;;
20381;SDS011;10350;51.280;12.400;2024-03-22T12:38:50;1999.90;;;999.90;;
20381;SDS011;10350;51.280;12.400;2024-03-22T12:41:16;1999.90;;;999.90;;
20381;SDS011;10350;51.280;12.400;2024-03-22T12:43:42;1999.90;;;999.90;;
20381;SDS011;10350;51.280;12.400;2024-03-22T12:46:08;1999.90;;;999.90;;
20381;SDS011;10350;51.280;12.400;2024-03-22T12:48:34;1999.90;;;999.90;;
20381;SDS011;10350;51.280;12.400;2024-03-22T12:51:01;1999.90;;;999.90;;
20381;SDS011;10350;51.280;12.400;2024-03-22T12:53:27;1999.90;;;999.90;;
20381;SDS011;10350;51.280;12.400;2024-03-22T12:55:53;1999.90;;;999.90;;
20381;SDS011;10350;51.280;12.400;2024-03-22T12:58:19;1999.90;;;999.90;;
20381;SDS011;10350;51.280;12.400;2024-03-22T13:00:45;1999.90;;;999.90;;
20381;SDS011;10350;51.280;12.400;2024-03-22T13:03:10;1999.90;;;999.90;;
20381;SDS011;10350;51.280;12.400;2024-03-22T13:05:38;1999.90;;;999.90;;
20381;SDS011;10350;51.280;12.400;2024-03-22T13:08:04;1999.90;;;999.90;;
20381;SDS011;10350;51.280;12.400;2024-03-22T13:10:30;1999.90;;;999.90;;
20381;SDS011;10350;51.280;12.400;2024-03-22T13:12:56;1999.90;;;999.90;;
20381;SDS011;10350;51.280;12.400;2024-03-22T13:15:22;1999.90;;;999.90;;
20381;SDS011;10350;51.280;12.400;2024-03-22T13:17:49;1999.90;;;999.90;;
20381;SDS011;10350;51.280;12.400;2024-03-22T13:20:15;1999.90;;;999.90;;
20381;SDS011;10350;51.280;12.400;2024-03-22T13:22:43;1999.90;;;999.90;;
20381;SDS011;10350;51.280;12.400;2024-03-22T13:25:09;1999.90;;;999.90;;
20381;SDS011;10350;51.280;12.400;2024-03-22T13:27:36;1999.90;;;999.90;;
20381;SDS011;10350;51.280;12.400;2024-03-22T13:30:06;1999.90;;;999.90;;
20381;SDS011;10350;51.280;12.400;2024-03-22T13:32:36;1999.90;;;999.90;;
20381;SDS011;10350;51.280;12.400;2024-03-22T13:35:03;1999.90;;;999.90;;
20381;SDS011;10350;51.280;12.400;2024-03-22T13:37:29;1999.90;;;999.90;;
20381;SDS011;10350;51.280;12.400;2024-03-22T13:39:55;1999.90;;;999.90;;
20381;SDS011;10350;51.280;12.400;2024-03-22T13:42:21;1999.90;;;999.90;;
20381;SDS011;10350;51.280;12.400;2024-03-22T13:44:47;1999.90;;;999.90;;
20381;SDS011;10350;51.280;12.400;2024-03-22T13:47:13;1999.90;;;999.90;;
20381;SDS011;10350;51.280;12.400;2024-03-22T13:49:39;1999.90;;;999.90;;
20381;SDS011;10350;51.280;12.400;2024-03-22T13:52:08;1999.90;;;999.90;;
20381;SDS011;10350;51.280;12.400;2024-03-22T13:54:34;1999.90;;;999.90;;
20381;SDS011;10350;51.280;12.400;2024-03-22T13:57:00;1999.90;;;999.90;;
20381;SDS011;10350;51.280;12.400;2024-03-22T13:59:28;1999.90;;;999.90;;